This is the latest recevied weather packets stored in our database for station/object VK3CG. If no packets are shown the sender has not sent any weather packets the latest 10 day(s).
| Time | Temp. | Humidity | Pressure | Rain* | Wind** | Luminosity | Snow |
|---|---|---|---|---|---|---|---|
| 1777551303 | 16.67° C | 46% | 1036.7 hPa | 0 mm | - | 0 W/m² | - |
| 1777550403 | 16.67° C | 46% | 1036.7 hPa | 0 mm | - | 0 W/m² | - |
| 1777549502 | 16.11° C | 48% | 1036.6 hPa | 0 mm | - | 0 W/m² | - |
| 1777548602 | 13.89° C | 55% | 1036.5 hPa | 0 mm | - | 0 W/m² | - |
| 1777547701 | 13.33° C | 55% | 1036.5 hPa | 0 mm | - | 0 W/m² | - |
| 1777546802 | 13.33° C | 55% | 1036.6 hPa | 0 mm | - | 0 W/m² | - |
| 1777545960 | 13.89° C | 55% | 1036.6 hPa | 0 mm | - | 0 W/m² | - |
| 1777545060 | 13.89° C | 54% | 1036.6 hPa | 0 mm | - | 0 W/m² | - |
| 1777544160 | 14.44° C | 54% | 1036.6 hPa | 0 mm | - | 0 W/m² | - |
| 1777543259 | 14.44° C | 53% | 1036.6 hPa | 0 mm | - | 0 W/m² | - |
| 1777542358 | 15° C | 53% | 1036.6 hPa | 0 mm | - | 0 W/m² | - |
| 1777541462 | 15° C | 53% | 1036.5 hPa | 0 mm | - | 0 W/m² | - |
| 1777540561 | 15° C | 53% | 1036.5 hPa | 0 mm | - | 0 W/m² | - |
| 1777539661 | 15° C | 52% | 1036.4 hPa | 0 mm | - | 0 W/m² | - |
| 1777538757 | 15.56° C | 51% | 1036.5 hPa | 0 mm | - | 0 W/m² | - |
| 1777537857 | 16.11° C | 50% | 1036.3 hPa | 0 mm | - | 0 W/m² | - |
| 1777536958 | 16.67° C | 49% | 1036.3 hPa | 0 mm | - | 0 W/m² | - |
| 1777536058 | 16.67° C | 47% | 1036.1 hPa | 0 mm | - | 0 W/m² | - |
| 1777535165 | 17.78° C | 46% | 1036.1 hPa | 0 mm | - | 0 W/m² | - |
| 1777534254 | 18.33° C | 44% | 1036.2 hPa | 0 mm | - | 0 W/m² | - |
| 1777533355 | 18.33° C | 43% | 1036.1 hPa | 0 mm | - | 18 W/m² | - |
| 1777532453 | 18.89° C | 42% | 1036.1 hPa | 0 mm | - | 35 W/m² | - |
| 1777531564 | 19.44° C | 41% | 1036 hPa | 0 mm | - | 60 W/m² | - |
| 1777530652 | 19.44° C | 41% | 1036.1 hPa | 0 mm | - | 77 W/m² | - |
| 1777529751 | 19.44° C | 42% | 1036.1 hPa | 0 mm | - | 98 W/m² | - |
* Rain latest hour (hover to see other rain measurements)
** Current wind speed in m/s (hover to see current wind gust speed)